Flight Track Log - Related Links

Times and Time Zones

All times are in EDT time to prevent confusion due to time zone crossing. See the UAL256 flight status page for this flight to view local times or setup timezone preferences in your user account.

Time Position Orientation Groundspeed Altitude Reporting Facility
EDT Latitude Longitude Course Direction KTS MPH feet Rate Location/Type
Sat 08:56:18 AM 28.4000 -81.3000 355° North 176 203 800  Level Orlando TRACON
Sat 08:56:48 AM 28.3833 -81.2833 139° Southeast 175 201 2,400 2,267 Climbing Orlando TRACON
Sat 08:57:48 AM 28.3333 -81.2667 164° South 250 288 4,200 2,384 Climbing Orlando TRACON
Sat 08:58:00 AM 28.6464 -81.3333 North  Level FlightAware Approximate
Sat 08:59:00 AM 28.7631 -81.3422 354° North  Level FlightAware Approximate
Sat 08:59:19 AM 28.3661 -81.1869 65° Northeast 309 356 8,400  Level Jacksonville Center
Sat 09:00:00 AM 28.8796 -81.3546 355° North  Level FlightAware Approximate
Sat 09:00:19 AM 28.4478 -81.2092 347° North 279 321 10,900  Level Jacksonville Center
Sat 09:01:00 AM 28.9962 -81.3663 355° North  Level FlightAware Approximate
Sat 09:01:19 AM 28.5400 -81.2361 346° North 302 348 13,200  Level Jacksonville Center
Sat 09:02:19 AM 28.6383 -81.2628 347° North 333 383 16,000 2,700 Climbing Jacksonville Center
Sat 09:03:19 AM 28.7408 -81.2919 346° North 360 414 18,600 2,450 Climbing Jacksonville Center
Sat 09:04:19 AM 28.8456 -81.3211 346° North 376 433 20,900 2,100 Climbing Jacksonville Center
Sat 09:05:19 AM 28.9567 -81.3525 346° North 393 452 22,800 1,900 Climbing Jacksonville Center
Sat 09:06:19 AM 29.0739 -81.3744 351° North 406 467 24,700 1,550 Climbing Jacksonville Center
Sat 09:07:19 AM 29.1850 -81.4108 344° North 412 474 25,900 650 Climbing Jacksonville Center
Sat 09:08:19 AM 29.3044 -81.4708 336° Northwest 420 483 26,000 50 Climbing Jacksonville Center
Sat 09:09:19 AM 29.4136 -81.5264 336° Northwest 425 489 26,000 600 Level Jacksonville Center
Sat 09:10:19 AM 29.5228 -81.5822 336° Northwest 425 489 27,200 1,400 Climbing Jacksonville Center
Sat 09:11:19 AM 29.6319 -81.6358 337° Northwest 425 489 28,800 1,600 Climbing Jacksonville Center
Sat 09:12:19 AM 29.7453 -81.6894 338° Northwest 425 489 30,400 1,800 Climbing Jacksonville Center
Sat 09:13:19 AM 29.8644 -81.7167 349° North 425 489 32,400 1,650 Climbing Jacksonville Center
Sat 09:14:19 AM 29.9872 -81.6792 15° North 418 481 33,700 1,150 Climbing Jacksonville Center
Sat 09:15:19 AM 30.1036 -81.6225 23° Northeast 431 496 34,700 650 Climbing Jacksonville Center
Sat 09:16:19 AM 30.2158 -81.5681 23° Northeast 449 517 35,000 150 Climbing Jacksonville Center
Sat 09:17:19 AM 30.3406 -81.5086 22° Northeast 460 529 35,000  Level Jacksonville Center
Sat 09:18:19 AM 30.4650 -81.4539 21° North 470 541 35,000  Level Jacksonville Center
Sat 09:19:19 AM 30.5897 -81.3964 22° Northeast 475 547 35,000  Level Jacksonville Center
Sat 09:20:19 AM 30.7144 -81.3414 21° North 475 547 35,000  Level Jacksonville Center
Sat 09:21:19 AM 30.8408 -81.2811 22° Northeast 475 547 35,000  Level Jacksonville Center
Sat 09:22:19 AM 30.9656 -81.2258 21° North 475 547 35,000  Level Jacksonville Center
Sat 09:23:19 AM 31.0900 -81.1700 21° North 475 547 35,000 400 Level Jacksonville Center
Sat 09:24:19 AM 31.2144 -81.1097 22° Northeast 475 547 35,800 1,000 Climbing Jacksonville Center
Sat 09:25:19 AM 31.3533 -81.0436 22° Northeast 475 547 37,000 600 Climbing Jacksonville Center
Sat 09:26:19 AM 31.4736 -80.9878 22° Northeast 474 545 37,000  Level Jacksonville Center
Sat 09:27:19 AM 31.5878 -80.9367 21° North 474 545 37,000  Level Jacksonville Center
Sat 09:28:19 AM 31.7244 -80.8703 22° Northeast 474 545 37,000  Level Jacksonville Center
Sat 09:29:19 AM 31.8508 -80.8111 22° Northeast 474 545 37,000  Level Jacksonville Center
Sat 09:30:19 AM 31.9669 -80.7597 21° North 489 563 37,000  Level Jacksonville Center
Sat 09:31:19 AM 32.1078 -80.6925 22° Northeast 489 563 37,000  Level Jacksonville Center
Sat 09:32:19 AM 32.2236 -80.6358 22° Northeast 489 563 37,000  Level Jacksonville Center
Sat 09:33:19 AM 32.3500 -80.5761 22° Northeast 489 563 37,000 -50 Level Jacksonville Center
Sat 09:34:19 AM 32.4742 -80.5164 22° Northeast 489 563 36,900  Descending Jacksonville Center
Sat 09:35:19 AM 32.6003 -80.4561 22° Northeast 489 563 37,000  Climbing Jacksonville Center
Sat 09:36:31 AM 32.7264 -80.3961 22° Northeast 489 563 36,900  Descending Jacksonville Center
Sat 09:37:31 AM 32.8753 -80.3228 22° Northeast 489 563 37,000 50 Climbing Jacksonville Center
Sat 09:38:31 AM 33.0136 -80.2567 22° Northeast 505 581 37,000  Level Jacksonville Center
Sat 09:39:31 AM 33.1461 -80.1933 22° Northeast 498 573 37,000  Level Jacksonville Center
Sat 09:40:31 AM 33.2742 -80.1325 22° Northeast 497 572 37,000  Level Jacksonville Center
Sat 09:41:31 AM 33.4000 -80.0711 22° Northeast 492 566 37,000  Level Jacksonville Center
Sat 09:42:31 AM 33.5258 -80.0100 22° Northeast 492 566 37,000  Level Jacksonville Center
Sat 09:43:31 AM 33.6517 -79.9458 23° Northeast 492 566 37,000  Level Jacksonville Center
Sat 09:44:31 AM 33.7775 -79.8817 23° Northeast 492 566 37,000 -50 Level Jacksonville Center
Sat 09:45:31 AM 33.9033 -79.8200 22° Northeast 492 566 36,900  Descending Jacksonville Center
Sat 09:46:31 AM 34.0292 -79.7603 21° North 492 566 37,000  Climbing Jacksonville Center
Sat 09:47:31 AM 34.1569 -79.6956 23° Northeast 492 566 36,900  Descending Jacksonville Center
Sat 09:49:38 AM 34.3936 -79.5708 23° Northeast 466 536 37,000 32 Climbing Washington Center
Sat 09:50:38 AM 34.5147 -79.5061 24° Northeast 466 536 37,000  Level Washington Center
Sat 09:51:37 AM 34.6356 -79.4414 24° Northeast 466 536 37,000  Level Washington Center
Sat 09:52:37 AM 34.7586 -79.3789 23° Northeast 466 536 37,000  Level Washington Center
Sat 09:53:38 AM 34.8775 -79.3136 24° Northeast 466 536 37,000  Level Washington Center
Sat 09:54:39 AM 34.9964 -79.2481 24° Northeast 466 536 37,000  Level Washington Center
Sat 09:55:39 AM 35.1150 -79.1875 23° Northeast 466 536 37,000 -205 Level Washington Center
Sat 09:56:36 AM 35.2339 -79.1214 24° Northeast 466 536 36,600 -763 Descending Washington Center
Sat 09:57:37 AM 35.3528 -79.0581 23° Northeast 461 531 35,500 -1,180 Descending Washington Center
Sat 09:58:38 AM 35.4714 -78.9942 24° Northeast 461 531 34,200 -1,289 Descending Washington Center
Sat 09:59:38 AM 35.5900 -78.9303 24° Northeast 461 531 32,900 -1,210 Descending Washington Center
Sat 10:00:37 AM 35.7214 -78.8592 24° Northeast 461 531 31,800 -950 Descending Washington Center
Sat 10:01:38 AM 35.8378 -78.7922 25° Northeast 461 531 31,000 -397 Descending Washington Center
Sat 10:02:38 AM 35.9564 -78.7278 24° Northeast 461 531 31,000  Level Washington Center
Sat 10:03:38 AM 36.0728 -78.6628 24° Northeast 461 531 31,000 -744 Level Washington Center
Sat 10:04:39 AM 36.1894 -78.5956 25° Northeast 461 531 29,500 -1,835 Descending Washington Center
Sat 10:05:39 AM 36.3078 -78.5303 24° Northeast 456 525 27,300 -1,271 Descending Washington Center
Sat 10:06:37 AM 36.4200 -78.4650 25° Northeast 451 519 27,000 -151 Descending Washington Center
Sat 10:07:38 AM 36.5319 -78.4017 24° Northeast 441 507 27,000  Level Washington Center
Sat 10:08:38 AM 36.6442 -78.3358 25° Northeast 441 507 27,000  Level Washington Center
Sat 10:09:39 AM 36.7561 -78.2750 24° Northeast 441 507 27,000  Level Washington Center
Sat 10:10:38 AM 36.8661 -78.2089 26° Northeast 436 502 27,000  Level Washington Center
Sat 10:11:39 AM 36.9547 -78.1572 25° Northeast 436 502 27,000  Level Washington Center
Sat 10:12:39 AM 37.0836 -78.0861 24° Northeast 428 493 27,000  Level Washington Center
Sat 10:13:38 AM 37.1911 -78.0244 25° Northeast 428 493 27,000 -202 Level Washington Center
Sat 10:14:38 AM 37.2989 -77.9650 24° Northeast 422 486 26,600 -1,200 Descending Washington Center
Sat 10:15:38 AM 37.4064 -77.9006 25° Northeast 422 486 24,600 -8,231 Descending Washington Center
Sat 10:16:39 AM 37.5097 -77.8408 25° Northeast 411 473 10,000 -1,664 Descending Washington Center
Sat 10:17:37 AM 37.6089 -77.7833 25° Northeast 399 459 21,300 4,600 Climbing Washington Center
Sat 10:18:39 AM 37.7081 -77.7258 25° Northeast 388 447 19,200 -1,918 Descending Washington Center
Sat 10:19:39 AM 37.8008 -77.6706 25° Northeast 383 441 17,400 -1,831 Descending Washington Center
Sat 10:20:37 AM 37.8933 -77.6181 24° Northeast 371 427 15,600 -1,815 Descending Washington Center
Sat 10:21:38 AM 37.9797 -77.5622 27° Northeast 355 409 13,800 -1,820 Descending Washington Center
Sat 10:22:39 AM 38.0556 -77.5272 20° North 333 383 11,900 -1,835 Descending Washington Center
Sat 10:23:39 AM 38.1419 -77.4742 26° Northeast 328 377 10,100 -923 Descending Washington Center
Sat 10:24:36 AM 38.2133 -77.4283 27° Northeast 309 356 10,100 -661 Level Washington Center
Sat 10:25:37 AM 38.2908 -77.4092 11° North 290 334 8,800 -1,240 Descending Washington Center
Sat 10:26:37 AM 38.3681 -77.4003 North 284 327 7,600 -1,091 Descending Washington Center
Sat 10:27:38 AM 38.4433 -77.3864 North 278 320 6,600 -1,000 Descending Washington Center
Sat 10:28:37 AM 38.5186 -77.3775 North 273 314 5,600 -807 Descending Washington Center
Sat 10:29:37 AM 38.5917 -77.3661 North 273 314 5,000 -702 Descending Washington Center
Sat 10:30:11 AM 38.6333 -77.3667 359° North 266 306 4,500 -702 Descending Potomac TRACON
Sat 10:31:11 AM 38.7167 -77.3500 North 261 300 3,900 -261 Descending Potomac TRACON
Sat 10:32:06 AM 38.7833 -77.3500 360° North 264 304 4,000 55 Climbing Potomac TRACON
Sat 10:33:00 AM 38.8500 -77.3500 360° North 264 304 4,000 -250 Level Potomac TRACON
Sat 10:34:06 AM 38.9333 -77.3500 360° North 262 302 3,500 -496 Descending Potomac TRACON
Sat 10:35:01 AM 38.9833 -77.3500 360° North 247 284 3,000 -450 Descending Potomac TRACON
Sat 10:36:06 AM 39.0667 -77.3500 360° North 222 255 2,600 -369 Descending Potomac TRACON

Login

Don't have an account? Register now (free) for customized features, flight alerts, and more!